メインページ
METAR-TAF:

METAR-TAF

空港 :

オデッサ国際空港

オデッサ, ウクライナ

緯度: 46-26N, 経度: 030-46E, 海抜: 42m

現時点の気象観測

当レポートは16分前の07:30(UTC)に作成
西の風 10kt、南西から西/北西の間で変化する
気温 24°C
湿度 57%
気圧 1004 hPa
視程10km以上
高度4000ftの雲は散在している

METAR: UKOO 170730Z 27005MPS 230V300 9999 SCT040 24/15 Q1004 R34/090060 NOSIG

時間: 10:46 (07:46 UTC)

予報

当レポートは2時間40分前の05:06(UTC)に作成
予報は17日の 06時(UTC)から 18日の 06時(UTC)まで有効
西の風 12kt、最大23ktの突風を伴う
視程: 6000m
高度1500ftの雲は散在している
高度2000ftの雲は散在している, 積乱雲.
確率 40% :
17日の 06時(UTC)から 17日の 18時(UTC)まで一時的に
変向風 17kt、最大31ktの突風を伴う
視程: 1000m
激しい雷雨, 雨, 雹
17日の 18時(UTC)から 17日の 19時(UTC)まで徐々に
南西の風 6kt
視程: 2100m
18日の 03時(UTC)から 18日の 04時(UTC)まで徐々に
北西の風 6kt

TAF: UKOO 170506Z 1706/1806 27006G12MPS 6000 SCT015 SCT020CB TX29/1712Z TN17/1802Z PROB40 TEMPO 1706/1718 VRB09G16MPS 1000 TSRAGR BECMG 1718/1719 23003MPS 2100 BR BECMG 1803/1804 31003MPS

4,000以上の空港の気象観測と天気予報(METAR報とTAF報)

利用可能な観測所は地図上に黄色い丸と赤い丸で示す。

丸の上にカーソルを重ねると観測所名を参照できる。

次にクリックすると気象観測と天気予報を参照できる。

マップの切り替え:黒色「×」印の緑ボタンをクリックして拡大、「-」印の緑ボタンをクリックして縮小、緑色の三角印をクリックして隣りの地図に切り替え


METAR-TAF: